sensor_id;sensor_type;location;lat;lon;timestamp;pressure;altitude;pressure_sealevel;temperature;humidity
16451;BME280;12243;42.708;23.310;2022-09-03T00:00:19;94994.16;;;16.74;100.00
16451;BME280;12243;42.708;23.310;2022-09-03T00:02:53;94992.38;;;16.74;100.00
16451;BME280;12243;42.708;23.310;2022-09-03T00:05:30;94998.75;;;16.72;100.00
16451;BME280;12243;42.708;23.310;2022-09-03T00:08:02;94999.41;;;16.65;100.00
16451;BME280;12243;42.708;23.310;2022-09-03T00:10:38;95003.84;;;16.73;100.00
16451;BME280;12243;42.708;23.310;2022-09-03T00:13:13;94998.47;;;16.75;100.00
16451;BME280;12243;42.708;23.310;2022-09-03T00:15:42;95002.06;;;16.74;100.00
16451;BME280;12243;42.708;23.310;2022-09-03T00:18:14;94999.09;;;16.68;100.00
16451;BME280;12243;42.708;23.310;2022-09-03T00:20:44;95002.53;;;16.61;100.00
16451;BME280;12243;42.708;23.310;2022-09-03T00:23:17;95000.09;;;16.67;100.00
16451;BME280;12243;42.708;23.310;2022-09-03T00:25:49;94995.78;;;16.66;100.00
16451;BME280;12243;42.708;23.310;2022-09-03T00:28:19;94996.44;;;16.68;100.00
16451;BME280;12243;42.708;23.310;2022-09-03T00:30:53;94991.22;;;16.60;100.00
16451;BME280;12243;42.708;23.310;2022-09-03T00:33:27;94984.66;;;16.56;100.00
16451;BME280;12243;42.708;23.310;2022-09-03T00:36:05;94981.00;;;16.49;100.00
16451;BME280;12243;42.708;23.310;2022-09-03T00:38:37;94982.84;;;16.40;100.00
16451;BME280;12243;42.708;23.310;2022-09-03T00:41:07;94975.75;;;16.41;100.00
16451;BME280;12243;42.708;23.310;2022-09-03T00:43:52;94973.78;;;16.35;100.00
16451;BME280;12243;42.708;23.310;2022-09-03T00:46:28;94986.94;;;16.27;100.00
16451;BME280;12243;42.708;23.310;2022-09-03T00:49:18;94991.53;;;16.25;100.00
16451;BME280;12243;42.708;23.310;2022-09-03T00:51:52;94994.66;;;16.20;100.00
16451;BME280;12243;42.708;23.310;2022-09-03T00:54:28;94993.50;;;16.23;100.00
16451;BME280;12243;42.708;23.310;2022-09-03T00:57:05;94996.47;;;16.28;100.00
16451;BME280;12243;42.708;23.310;2022-09-03T00:59:39;95001.06;;;16.34;100.00
16451;BME280;12243;42.708;23.310;2022-09-03T01:02:14;95001.56;;;16.37;100.00
16451;BME280;12243;42.708;23.310;2022-09-03T01:04:51;94988.28;;;16.39;100.00
16451;BME280;12243;42.708;23.310;2022-09-03T01:07:33;94989.41;;;16.44;100.00
16451;BME280;12243;42.708;23.310;2022-09-03T01:10:11;94997.13;;;16.54;100.00
16451;BME280;12243;42.708;23.310;2022-09-03T01:12:49;94999.75;;;16.62;100.00
16451;BME280;12243;42.708;23.310;2022-09-03T01:15:22;94987.25;;;16.64;100.00
16451;BME280;12243;42.708;23.310;2022-09-03T01:18:01;94993.81;;;16.52;100.00
16451;BME280;12243;42.708;23.310;2022-09-03T01:20:43;94989.53;;;16.59;100.00
16451;BME280;12243;42.708;23.310;2022-09-03T01:23:41;94997.94;;;16.55;100.00
16451;BME280;12243;42.708;23.310;2022-09-03T01:26:27;95005.34;;;16.51;100.00
16451;BME280;12243;42.708;23.310;2022-09-03T01:29:02;95007.00;;;16.60;100.00
16451;BME280;12243;42.708;23.310;2022-09-03T01:31:40;95006.16;;;16.60;100.00
16451;BME280;12243;42.708;23.310;2022-09-03T01:34:19;95012.56;;;16.65;100.00
16451;BME280;12243;42.708;23.310;2022-09-03T01:36:56;95026.53;;;16.66;100.00
16451;BME280;12243;42.708;23.310;2022-09-03T01:39:33;95024.06;;;16.64;100.00
16451;BME280;12243;42.708;23.310;2022-09-03T01:42:13;95032.94;;;16.55;100.00
16451;BME280;12243;42.708;23.310;2022-09-03T01:44:59;95025.22;;;16.62;100.00
16451;BME280;12243;42.708;23.310;2022-09-03T01:47:39;95028.19;;;16.51;100.00
16451;BME280;12243;42.708;23.310;2022-09-03T01:50:17;95011.41;;;16.52;100.00
16451;BME280;12243;42.708;23.310;2022-09-03T01:52:54;95012.22;;;16.52;100.00
16451;BME280;12243;42.708;23.310;2022-09-03T01:55:30;95009.13;;;16.57;100.00
16451;BME280;12243;42.708;23.310;2022-09-03T01:58:01;95019.13;;;16.45;100.00
16451;BME280;12243;42.708;23.310;2022-09-03T02:00:35;95013.22;;;16.51;100.00
16451;BME280;12243;42.708;23.310;2022-09-03T02:03:06;95015.53;;;16.46;100.00
16451;BME280;12243;42.708;23.310;2022-09-03T02:05:33;95002.53;;;16.44;100.00
16451;BME280;12243;42.708;23.310;2022-09-03T02:08:02;95013.06;;;16.44;100.00
16451;BME280;12243;42.708;23.310;2022-09-03T02:10:32;95010.59;;;16.43;100.00
16451;BME280;12243;42.708;23.310;2022-09-03T02:13:03;95015.38;;;16.39;100.00
16451;BME280;12243;42.708;23.310;2022-09-03T02:15:31;95016.69;;;16.43;100.00
16451;BME280;12243;42.708;23.310;2022-09-03T02:18:03;95024.72;;;16.42;100.00
16451;BME280;12243;42.708;23.310;2022-09-03T02:20:32;95017.31;;;16.37;100.00
16451;BME280;12243;42.708;23.310;2022-09-03T02:22:59;95023.59;;;16.36;100.00
16451;BME280;12243;42.708;23.310;2022-09-03T02:25:31;95018.47;;;16.35;100.00
16451;BME280;12243;42.708;23.310;2022-09-03T02:28:00;95024.06;;;16.32;100.00
16451;BME280;12243;42.708;23.310;2022-09-03T02:30:28;95031.78;;;16.33;100.00
16451;BME280;12243;42.708;23.310;2022-09-03T02:32:54;95032.44;;;16.27;100.00
16451;BME280;12243;42.708;23.310;2022-09-03T02:35:23;95033.09;;;16.29;100.00
16451;BME280;12243;42.708;23.310;2022-09-03T02:37:49;95031.94;;;16.24;100.00
16451;BME280;12243;42.708;23.310;2022-09-03T02:40:17;95028.97;;;16.27;100.00
16451;BME280;12243;42.708;23.310;2022-09-03T02:42:45;95028.66;;;16.22;100.00
16451;BME280;12243;42.708;23.310;2022-09-03T02:45:19;95032.75;;;16.24;100.00
16451;BME280;12243;42.708;23.310;2022-09-03T02:47:51;95034.25;;;16.18;100.00
16451;BME280;12243;42.708;23.310;2022-09-03T02:50:19;95038.19;;;16.14;100.00
16451;BME280;12243;42.708;23.310;2022-09-03T02:52:47;95045.03;;;16.07;100.00
16451;BME280;12243;42.708;23.310;2022-09-03T02:55:14;95046.84;;;16.07;100.00
16451;BME280;12243;42.708;23.310;2022-09-03T02:57:41;95032.56;;;16.09;100.00
16451;BME280;12243;42.708;23.310;2022-09-03T03:00:09;95037.84;;;16.17;100.00
16451;BME280;12243;42.708;23.310;2022-09-03T03:02:36;95033.56;;;16.08;100.00
16451;BME280;12243;42.708;23.310;2022-09-03T03:05:04;95031.94;;;16.15;100.00
16451;BME280;12243;42.708;23.310;2022-09-03T03:07:36;95028.16;;;16.18;100.00
16451;BME280;12243;42.708;23.310;2022-09-03T03:10:07;95036.69;;;16.20;100.00
16451;BME280;12243;42.708;23.310;2022-09-03T03:12:34;95039.66;;;16.33;100.00
16451;BME280;12243;42.708;23.310;2022-09-03T03:15:05;95036.22;;;16.33;100.00
16451;BME280;12243;42.708;23.310;2022-09-03T03:17:32;95026.34;;;16.35;100.00
16451;BME280;12243;42.708;23.310;2022-09-03T03:19:59;95031.63;;;16.27;100.00
16451;BME280;12243;42.708;23.310;2022-09-03T03:22:26;95029.47;;;16.30;100.00
16451;BME280;12243;42.708;23.310;2022-09-03T03:24:52;95025.38;;;16.36;100.00
16451;BME280;12243;42.708;23.310;2022-09-03T03:27:22;95032.94;;;16.31;100.00
16451;BME280;12243;42.708;23.310;2022-09-03T03:29:50;95028.66;;;16.22;100.00
16451;BME280;12243;42.708;23.310;2022-09-03T03:32:17;95033.41;;;16.26;100.00
16451;BME280;12243;42.708;23.310;2022-09-03T03:34:44;95028.97;;;16.18;100.00
16451;BME280;12243;42.708;23.310;2022-09-03T03:37:10;95026.69;;;16.15;100.00
16451;BME280;12243;42.708;23.310;2022-09-03T03:39:37;95027.81;;;16.13;100.00
16451;BME280;12243;42.708;23.310;2022-09-03T03:42:04;95026.53;;;16.25;100.00
16451;BME280;12243;42.708;23.310;2022-09-03T03:44:32;95035.06;;;16.19;100.00
16451;BME280;12243;42.708;23.310;2022-09-03T03:46:59;95036.50;;;16.13;100.00
16451;BME280;12243;42.708;23.310;2022-09-03T03:49:26;95032.56;;;16.17;100.00
16451;BME280;12243;42.708;23.310;2022-09-03T03:51:53;95031.25;;;16.13;100.00
16451;BME280;12243;42.708;23.310;2022-09-03T03:54:20;95035.56;;;16.23;100.00
16451;BME280;12243;42.708;23.310;2022-09-03T03:56:47;95037.50;;;16.20;100.00
16451;BME280;12243;42.708;23.310;2022-09-03T03:59:14;95034.56;;;16.24;100.00
16451;BME280;12243;42.708;23.310;2022-09-03T04:01:42;95037.50;;;16.20;100.00
16451;BME280;12243;42.708;23.310;2022-09-03T04:04:09;95039.81;;;16.24;100.00
16451;BME280;12243;42.708;23.310;2022-09-03T04:06:36;95039.00;;;16.31;100.00
16451;BME280;12243;42.708;23.310;2022-09-03T04:09:02;95033.59;;;16.33;100.00
16451;BME280;12243;42.708;23.310;2022-09-03T04:11:29;95037.53;;;16.37;100.00
16451;BME280;12243;42.708;23.310;2022-09-03T04:13:56;95038.19;;;16.31;100.00
16451;BME280;12243;42.708;23.310;2022-09-03T04:16:24;95032.59;;;16.34;100.00
16451;BME280;12243;42.708;23.310;2022-09-03T04:18:54;95037.88;;;16.34;100.00
16451;BME280;12243;42.708;23.310;2022-09-03T04:21:23;95035.56;;;16.31;100.00
16451;BME280;12243;42.708;23.310;2022-09-03T04:23:51;95040.00;;;16.22;100.00
16451;BME280;12243;42.708;23.310;2022-09-03T04:26:19;95036.53;;;16.30;100.00
16451;BME280;12243;42.708;23.310;2022-09-03T04:28:46;95044.94;;;16.41;100.00
16451;BME280;12243;42.708;23.310;2022-09-03T04:31:15;95049.38;;;16.41;100.00
16451;BME280;12243;42.708;23.310;2022-09-03T04:33:43;95049.03;;;16.52;100.00
16451;BME280;12243;42.708;23.310;2022-09-03T04:36:13;95051.84;;;16.42;100.00
16451;BME280;12243;42.708;23.310;2022-09-03T04:38:42;95061.88;;;16.39;100.00
16451;BME280;12243;42.708;23.310;2022-09-03T04:41:12;95068.44;;;16.43;100.00
16451;BME280;12243;42.708;23.310;2022-09-03T04:43:39;95070.56;;;16.39;100.00
16451;BME280;12243;42.708;23.310;2022-09-03T04:46:09;95071.72;;;16.45;100.00
16451;BME280;12243;42.708;23.310;2022-09-03T04:48:37;95073.69;;;16.43;100.00
16451;BME280;12243;42.708;23.310;2022-09-03T04:51:05;95075.97;;;16.38;100.00
16451;BME280;12243;42.708;23.310;2022-09-03T04:53:36;95088.16;;;16.39;100.00
16451;BME280;12243;42.708;23.310;2022-09-03T04:56:11;95092.72;;;16.29;100.00
16451;BME280;12243;42.708;23.310;2022-09-03T04:58:38;95092.56;;;16.30;100.00
16451;BME280;12243;42.708;23.310;2022-09-03T05:01:07;95095.00;;;16.24;100.00
16451;BME280;12243;42.708;23.310;2022-09-03T05:03:34;95099.31;;;16.33;100.00
16451;BME280;12243;42.708;23.310;2022-09-03T05:06:02;95102.25;;;16.38;100.00
16451;BME280;12243;42.708;23.310;2022-09-03T05:08:30;95104.25;;;16.36;100.00
16451;BME280;12243;42.708;23.310;2022-09-03T05:11:03;95113.25;;;16.33;100.00
16451;BME280;12243;42.708;23.310;2022-09-03T05:13:30;95106.19;;;16.34;100.00
16451;BME280;12243;42.708;23.310;2022-09-03T05:15:58;95102.06;;;16.31;100.00
16451;BME280;12243;42.708;23.310;2022-09-03T05:18:26;95107.53;;;16.38;100.00
16451;BME280;12243;42.708;23.310;2022-09-03T05:20:57;95113.09;;;16.35;100.00
16451;BME280;12243;42.708;23.310;2022-09-03T05:23:25;95100.44;;;16.30;100.00
16451;BME280;12243;42.708;23.310;2022-09-03T05:25:54;95107.50;;;16.22;100.00
16451;BME280;12243;42.708;23.310;2022-09-03T05:28:24;95109.81;;;16.33;100.00
16451;BME280;12243;42.708;23.310;2022-09-03T05:30:59;95118.50;;;16.25;100.00
16451;BME280;12243;42.708;23.310;2022-09-03T05:33:26;95118.84;;;16.22;100.00
16451;BME280;12243;42.708;23.310;2022-09-03T05:35:53;95107.50;;;16.22;100.00
16451;BME280;12243;42.708;23.310;2022-09-03T05:38:20;95110.13;;;16.30;100.00
16451;BME280;12243;42.708;23.310;2022-09-03T05:40:47;95117.38;;;16.36;100.00
16451;BME280;12243;42.708;23.310;2022-09-03T05:43:14;95120.03;;;16.52;100.00
16451;BME280;12243;42.708;23.310;2022-09-03T05:45:43;95112.81;;;16.62;100.00
16451;BME280;12243;42.708;23.310;2022-09-03T05:48:10;95116.63;;;16.76;100.00
16451;BME280;12243;42.708;23.310;2022-09-03T05:50:37;95120.75;;;16.87;100.00
16451;BME280;12243;42.708;23.310;2022-09-03T05:53:04;95121.09;;;16.92;100.00
16451;BME280;12243;42.708;23.310;2022-09-03T05:55:31;95117.81;;;17.06;100.00
16451;BME280;12243;42.708;23.310;2022-09-03T05:57:58;95119.75;;;17.04;100.00
16451;BME280;12243;42.708;23.310;2022-09-03T06:00:25;95114.50;;;17.04;100.00
16451;BME280;12243;42.708;23.310;2022-09-03T06:02:53;95115.66;;;17.10;100.00
16451;BME280;12243;42.708;23.310;2022-09-03T06:05:20;95118.97;;;17.12;100.00
16451;BME280;12243;42.708;23.310;2022-09-03T06:07:47;95128.97;;;17.17;100.00
16451;BME280;12243;42.708;23.310;2022-09-03T06:10:14;95118.63;;;17.23;100.00
16451;BME280;12243;42.708;23.310;2022-09-03T06:12:42;95135.72;;;17.27;100.00
16451;BME280;12243;42.708;23.310;2022-09-03T06:15:14;95128.97;;;17.33;100.00
16451;BME280;12243;42.708;23.310;2022-09-03T06:17:41;95119.91;;;17.44;100.00
16451;BME280;12243;42.708;23.310;2022-09-03T06:20:10;95131.72;;;17.56;100.00
16451;BME280;12243;42.708;23.310;2022-09-03T06:22:36;95135.13;;;17.89;98.92
16451;BME280;12243;42.708;23.310;2022-09-03T06:25:04;95134.41;;;17.95;97.81
16451;BME280;12243;42.708;23.310;2022-09-03T06:27:32;95131.25;;;18.08;96.98
16451;BME280;12243;42.708;23.310;2022-09-03T06:29:59;95129.03;;;18.28;96.34
16451;BME280;12243;42.708;23.310;2022-09-03T06:32:26;95132.19;;;18.46;95.68
16451;BME280;12243;42.708;23.310;2022-09-03T06:34:53;95136.00;;;18.75;93.95
16451;BME280;12243;42.708;23.310;2022-09-03T06:37:21;95138.34;;;18.93;92.36
16451;BME280;12243;42.708;23.310;2022-09-03T06:39:48;95138.00;;;18.96;91.58
16451;BME280;12243;42.708;23.310;2022-09-03T06:42:16;95137.06;;;19.12;90.76
16451;BME280;12243;42.708;23.310;2022-09-03T06:44:43;95136.56;;;19.31;90.75
16451;BME280;12243;42.708;23.310;2022-09-03T06:47:10;95130.66;;;19.44;88.48
16451;BME280;12243;42.708;23.310;2022-09-03T06:49:37;95132.00;;;19.25;88.90
16451;BME280;12243;42.708;23.310;2022-09-03T06:52:04;95130.63;;;19.14;89.41
16451;BME280;12243;42.708;23.310;2022-09-03T06:54:32;95133.50;;;19.04;90.26
16451;BME280;12243;42.708;23.310;2022-09-03T06:56:59;95133.34;;;19.21;91.01
16451;BME280;12243;42.708;23.310;2022-09-03T06:59:26;95130.91;;;19.34;90.20
16451;BME280;12243;42.708;23.310;2022-09-03T07:01:53;95134.41;;;19.49;88.91
16451;BME280;12243;42.708;23.310;2022-09-03T07:04:19;95140.06;;;19.46;89.51
16451;BME280;12243;42.708;23.310;2022-09-03T07:06:49;95141.22;;;19.44;87.74
16451;BME280;12243;42.708;23.310;2022-09-03T07:09:16;95149.69;;;19.39;88.79
16451;BME280;12243;42.708;23.310;2022-09-03T07:11:45;95142.94;;;19.22;88.91
16451;BME280;12243;42.708;23.310;2022-09-03T07:14:12;95149.72;;;19.16;89.63
16451;BME280;12243;42.708;23.310;2022-09-03T07:16:39;95153.66;;;19.20;90.03
16451;BME280;12243;42.708;23.310;2022-09-03T07:19:07;95153.41;;;19.30;89.90
16451;BME280;12243;42.708;23.310;2022-09-03T07:21:35;95151.81;;;19.59;88.06
16451;BME280;12243;42.708;23.310;2022-09-03T07:24:03;95153.50;;;19.74;87.14
16451;BME280;12243;42.708;23.310;2022-09-03T07:26:32;95156.06;;;19.97;85.55
16451;BME280;12243;42.708;23.310;2022-09-03T07:29:01;95158.41;;;20.22;85.36
16451;BME280;12243;42.708;23.310;2022-09-03T07:31:29;95165.06;;;20.48;82.89
16451;BME280;12243;42.708;23.310;2022-09-03T07:33:57;95163.69;;;20.52;82.98
16451;BME280;12243;42.708;23.310;2022-09-03T07:36:26;95168.13;;;20.66;83.17
16451;BME280;12243;42.708;23.310;2022-09-03T07:38:54;95168.28;;;20.79;81.70
16451;BME280;12243;42.708;23.310;2022-09-03T07:41:21;95165.81;;;20.78;82.16
16451;BME280;12243;42.708;23.310;2022-09-03T07:43:49;95167.03;;;20.75;81.81
16451;BME280;12243;42.708;23.310;2022-09-03T07:46:20;95170.28;;;20.77;82.49
16451;BME280;12243;42.708;23.310;2022-09-03T07:48:49;95164.78;;;20.93;81.40
16451;BME280;12243;42.708;23.310;2022-09-03T07:51:17;95170.06;;;21.36;80.45
16451;BME280;12243;42.708;23.310;2022-09-03T07:53:44;95177.03;;;21.37;79.13
16451;BME280;12243;42.708;23.310;2022-09-03T07:58:38;95182.56;;;21.43;78.10
16451;BME280;12243;42.708;23.310;2022-09-03T08:01:08;95172.78;;;21.22;78.98
16451;BME280;12243;42.708;23.310;2022-09-03T08:03:38;95175.72;;;21.33;79.01
16451;BME280;12243;42.708;23.310;2022-09-03T08:06:06;95179.53;;;21.24;79.31
16451;BME280;12243;42.708;23.310;2022-09-03T08:08:34;95183.06;;;21.53;78.62
16451;BME280;12243;42.708;23.310;2022-09-03T08:11:06;95176.56;;;21.83;76.39
16451;BME280;12243;42.708;23.310;2022-09-03T08:13:34;95173.03;;;22.04;75.56
16451;BME280;12243;42.708;23.310;2022-09-03T08:16:01;95175.63;;;22.26;75.37
16451;BME280;12243;42.708;23.310;2022-09-03T08:18:29;95174.34;;;22.15;74.54
16451;BME280;12243;42.708;23.310;2022-09-03T08:21:01;95175.03;;;22.30;74.62
16451;BME280;12243;42.708;23.310;2022-09-03T08:23:28;95177.09;;;22.07;75.27
16451;BME280;12243;42.708;23.310;2022-09-03T08:25:57;95183.25;;;22.07;74.46
16451;BME280;12243;42.708;23.310;2022-09-03T08:28:24;95181.78;;;22.05;74.24
16451;BME280;12243;42.708;23.310;2022-09-03T08:30:51;95175.03;;;22.02;74.61
16451;BME280;12243;42.708;23.310;2022-09-03T08:33:18;95181.53;;;22.28;73.60
16451;BME280;12243;42.708;23.310;2022-09-03T08:36:04;95176.31;;;22.48;73.09
16451;BME280;12243;42.708;23.310;2022-09-03T08:38:32;95179.09;;;22.26;73.18
16451;BME280;12243;42.708;23.310;2022-09-03T08:41:03;95174.81;;;22.25;73.31
16451;BME280;12243;42.708;23.310;2022-09-03T08:43:37;95171.91;;;22.20;73.17
16451;BME280;12243;42.708;23.310;2022-09-03T08:46:11;95169.59;;;22.52;72.88
16451;BME280;12243;42.708;23.310;2022-09-03T08:48:38;95160.19;;;23.04;70.38
16451;BME280;12243;42.708;23.310;2022-09-03T08:51:08;95162.84;;;23.11;70.42
16451;BME280;12243;42.708;23.310;2022-09-03T08:53:41;95166.91;;;23.00;69.61
16451;BME280;12243;42.708;23.310;2022-09-03T08:56:13;95171.16;;;22.88;69.96
16451;BME280;12243;42.708;23.310;2022-09-03T08:58:44;95174.22;;;22.85;70.76
16451;BME280;12243;42.708;23.310;2022-09-03T09:01:15;95171.63;;;23.11;70.38
16451;BME280;12243;42.708;23.310;2022-09-03T09:03:52;95178.22;;;23.42;69.09
16451;BME280;12243;42.708;23.310;2022-09-03T09:06:29;95171.84;;;23.10;69.43
16451;BME280;12243;42.708;23.310;2022-09-03T09:09:06;95170.03;;;23.23;69.34
16451;BME280;12243;42.708;23.310;2022-09-03T09:12:06;95179.22;;;23.14;68.48
16451;BME280;12243;42.708;23.310;2022-09-03T09:14:37;95176.94;;;23.11;68.48
16451;BME280;12243;42.708;23.310;2022-09-03T09:17:19;95176.38;;;23.22;68.80
16451;BME280;12243;42.708;23.310;2022-09-03T09:19:56;95175.56;;;23.48;68.31
16451;BME280;12243;42.708;23.310;2022-09-03T09:22:30;95179.88;;;23.89;67.36
16451;BME280;12243;42.708;23.310;2022-09-03T09:25:02;95182.94;;;24.06;67.35
16451;BME280;12243;42.708;23.310;2022-09-03T09:27:31;95178.84;;;23.70;67.77
16451;BME280;12243;42.708;23.310;2022-09-03T09:30:00;95178.84;;;23.57;67.98
16451;BME280;12243;42.708;23.310;2022-09-03T09:32:29;95184.16;;;23.77;68.19
16451;BME280;12243;42.708;23.310;2022-09-03T09:34:58;95178.81;;;24.10;66.98
16451;BME280;12243;42.708;23.310;2022-09-03T09:37:25;95176.34;;;24.02;66.69
16451;BME280;12243;42.708;23.310;2022-09-03T09:39:56;95173.91;;;24.07;66.80
16451;BME280;12243;42.708;23.310;2022-09-03T09:42:24;95175.88;;;24.38;65.10
16451;BME280;12243;42.708;23.310;2022-09-03T09:44:51;95182.81;;;24.53;64.24
16451;BME280;12243;42.708;23.310;2022-09-03T09:47:24;95175.41;;;24.61;63.85
16451;BME280;12243;42.708;23.310;2022-09-03T09:49:54;95178.38;;;24.85;63.32
16451;BME280;12243;42.708;23.310;2022-09-03T09:52:22;95172.66;;;25.19;61.79
16451;BME280;12243;42.708;23.310;2022-09-03T09:54:51;95172.53;;;25.39;61.79
16451;BME280;12243;42.708;23.310;2022-09-03T09:57:24;95184.19;;;25.13;61.64
16451;BME280;12243;42.708;23.310;2022-09-03T10:00:02;95185.69;;;24.51;63.24
16451;BME280;12243;42.708;23.310;2022-09-03T10:02:38;95188.97;;;24.33;65.03
16451;BME280;12243;42.708;23.310;2022-09-03T10:05:14;95186.66;;;24.63;63.87
16451;BME280;12243;42.708;23.310;2022-09-03T10:07:54;95182.88;;;24.13;64.85
16451;BME280;12243;42.708;23.310;2022-09-03T10:10:21;95178.63;;;23.92;65.37
16451;BME280;12243;42.708;23.310;2022-09-03T10:12:55;95188.03;;;23.88;65.66
16451;BME280;12243;42.708;23.310;2022-09-03T10:15:30;95180.22;;;24.13;64.16
16451;BME280;12243;42.708;23.310;2022-09-03T10:18:03;95189.09;;;23.87;64.36
16451;BME280;12243;42.708;23.310;2022-09-03T10:20:40;95171.88;;;23.56;64.95
16451;BME280;12243;42.708;23.310;2022-09-03T10:23:15;95178.03;;;23.76;65.01
16451;BME280;12243;42.708;23.310;2022-09-03T10:25:53;95175.53;;;24.08;64.09
16451;BME280;12243;42.708;23.310;2022-09-03T10:28:28;95169.31;;;24.47;64.37
16451;BME280;12243;42.708;23.310;2022-09-03T10:31:12;95174.84;;;24.53;62.72
16451;BME280;12243;42.708;23.310;2022-09-03T10:33:46;95177.50;;;24.39;63.62
16451;BME280;12243;42.708;23.310;2022-09-03T10:36:19;95169.28;;;24.54;62.98
16451;BME280;12243;42.708;23.310;2022-09-03T10:38:52;95180.78;;;24.48;62.34
16451;BME280;12243;42.708;23.310;2022-09-03T10:41:34;95168.81;;;24.70;63.18
16451;BME280;12243;42.708;23.310;2022-09-03T10:44:21;95172.88;;;24.80;61.83
16451;BME280;12243;42.708;23.310;2022-09-03T10:46:59;95176.84;;;25.02;61.92
16451;BME280;12243;42.708;23.310;2022-09-03T10:49:38;95178.00;;;25.19;60.82
16451;BME280;12243;42.708;23.310;2022-09-03T10:52:15;95179.03;;;25.50;60.54
16451;BME280;12243;42.708;23.310;2022-09-03T10:54:59;95184.53;;;25.24;60.92
16451;BME280;12243;42.708;23.310;2022-09-03T10:57:43;95180.28;;;25.09;61.71
16451;BME280;12243;42.708;23.310;2022-09-03T11:00:14;95176.69;;;25.35;61.66
16451;BME280;12243;42.708;23.310;2022-09-03T11:02:58;95181.66;;;25.82;59.02
16451;BME280;12243;42.708;23.310;2022-09-03T11:05:36;95169.09;;;26.07;58.75
16451;BME280;12243;42.708;23.310;2022-09-03T11:08:27;95167.59;;;25.93;58.91
16451;BME280;12243;42.708;23.310;2022-09-03T11:11:11;95172.50;;;25.46;59.98
16451;BME280;12243;42.708;23.310;2022-09-03T11:13:44;95170.19;;;25.75;60.09
16451;BME280;12243;42.708;23.310;2022-09-03T11:16:16;95174.31;;;26.21;59.46
16451;BME280;12243;42.708;23.310;2022-09-03T11:18:48;95171.94;;;26.12;58.32
16451;BME280;12243;42.708;23.310;2022-09-03T11:21:18;95188.34;;;26.53;57.13
16451;BME280;12243;42.708;23.310;2022-09-03T11:23:50;95177.03;;;26.32;57.03
16451;BME280;12243;42.708;23.310;2022-09-03T11:26:21;95181.75;;;26.55;57.06
16451;BME280;12243;42.708;23.310;2022-09-03T11:28:54;95179.94;;;26.86;55.85
16451;BME280;12243;42.708;23.310;2022-09-03T11:31:32;95166.97;;;27.20;54.90
16451;BME280;12243;42.708;23.310;2022-09-03T11:34:06;95167.16;;;27.48;53.97
16451;BME280;12243;42.708;23.310;2022-09-03T11:36:35;95171.09;;;27.34;53.95
16451;BME280;12243;42.708;23.310;2022-09-03T11:39:12;95170.22;;;27.22;54.96
16451;BME280;12243;42.708;23.310;2022-09-03T11:41:41;95171.38;;;26.47;56.64
16451;BME280;12243;42.708;23.310;2022-09-03T11:44:16;95162.94;;;26.07;57.88
16451;BME280;12243;42.708;23.310;2022-09-03T11:46:54;95159.00;;;25.91;58.44
16451;BME280;12243;42.708;23.310;2022-09-03T11:49:28;95156.66;;;26.01;58.15
16451;BME280;12243;42.708;23.310;2022-09-03T11:51:59;95169.84;;;26.14;58.70
16451;BME280;12243;42.708;23.310;2022-09-03T11:54:27;95175.28;;;26.45;57.33
16451;BME280;12243;42.708;23.310;2022-09-03T11:57:10;95169.13;;;26.26;56.70
16451;BME280;12243;42.708;23.310;2022-09-03T11:59:39;95167.81;;;25.92;58.43
16451;BME280;12243;42.708;23.310;2022-09-03T12:02:25;95171.44;;;25.72;59.77
16451;BME280;12243;42.708;23.310;2022-09-03T12:05:07;95163.75;;;25.89;59.35
16451;BME280;12243;42.708;23.310;2022-09-03T12:07:46;95157.13;;;25.41;60.50
16451;BME280;12243;42.708;23.310;2022-09-03T12:10:30;95157.88;;;24.85;62.25
16451;BME280;12243;42.708;23.310;2022-09-03T12:13:11;95152.97;;;25.21;62.13
16451;BME280;12243;42.708;23.310;2022-09-03T12:16:03;95145.13;;;25.82;61.28
16451;BME280;12243;42.708;23.310;2022-09-03T12:18:34;95145.97;;;26.01;57.91
16451;BME280;12243;42.708;23.310;2022-09-03T12:21:04;95148.34;;;26.28;57.81
16451;BME280;12243;42.708;23.310;2022-09-03T12:23:34;95143.47;;;26.92;56.40
16451;BME280;12243;42.708;23.310;2022-09-03T12:26:04;95145.47;;;27.26;55.09
16451;BME280;12243;42.708;23.310;2022-09-03T12:28:36;95141.44;;;27.47;54.67
16451;BME280;12243;42.708;23.310;2022-09-03T12:31:08;95146.31;;;27.27;54.28
16451;BME280;12243;42.708;23.310;2022-09-03T12:33:41;95149.31;;;27.00;55.03
16451;BME280;12243;42.708;23.310;2022-09-03T12:36:08;95144.75;;;26.71;56.18
16451;BME280;12243;42.708;23.310;2022-09-03T12:38:35;95145.00;;;26.69;55.61
16451;BME280;12243;42.708;23.310;2022-09-03T12:41:02;95140.34;;;26.09;57.07
16451;BME280;12243;42.708;23.310;2022-09-03T12:43:29;95135.84;;;25.85;58.18
16451;BME280;12243;42.708;23.310;2022-09-03T12:45:56;95141.88;;;25.80;57.76
16451;BME280;12243;42.708;23.310;2022-09-03T12:48:23;95136.63;;;26.10;56.67
16451;BME280;12243;42.708;23.310;2022-09-03T12:51:01;95133.34;;;26.45;56.12
16451;BME280;12243;42.708;23.310;2022-09-03T12:53:29;95139.13;;;26.42;55.41
16451;BME280;12243;42.708;23.310;2022-09-03T12:55:59;95129.56;;;26.53;55.81
16451;BME280;12243;42.708;23.310;2022-09-03T12:58:30;95127.06;;;26.88;54.84
16451;BME280;12243;42.708;23.310;2022-09-03T13:01:07;95123.91;;;27.10;54.07
16451;BME280;12243;42.708;23.310;2022-09-03T13:03:43;95124.00;;;26.73;53.93
16451;BME280;12243;42.708;23.310;2022-09-03T13:06:14;95118.09;;;26.82;54.98
16451;BME280;12243;42.708;23.310;2022-09-03T13:08:44;95118.94;;;27.13;54.00